Terminal Aerodrome Forecast
Issued by NWS La Crosse, WI

Home | Current Version | Previous Version | Text Only | Print | Product List | Glossary On
Versions: 1 2 3 4 5 6 7 8 9 10 11 12 13 14 15 16 17 18 19 20 21 22 23 24 25 26 27 28 29 30 31 32 33 34 35 36 37 38 39 40 41 42 43 44 45 46 47 48
000
FTUS43 KARX 232100 AAB
TAFLSE
TAF AMD
KLSE 232100Z 2321/2418 18006KT 1SM -RA BR OVC012
      TEMPO 2321/2401 1/2SM -RA FG OVC008
     FM240100 VRB03KT 2SM -RA BR OVC004
     FM240300 32008KT 4SM -RA BR OVC007
     FM241000 32014KT 3SM -SN OVC007
     FM241200 32020G28KT P6SM -SN BKN020=

USA.gov is the U.S. government's official web portal to all federal, state and local government web resources and services.